Time;durP1;ratioP1;P1;durP2;ratioP2;P2;SDS_P1;SDS_P2;PMS_P1;PMS_P2;Temp;Humidity;BMP_temperature;BMP_pressure;BME280_temperature;BME280_humidity;BME280_pressure;Samples;Min_cycle;Max_cycle;Signal;HPM_P1;HPM_P2
2021/08/16 00:00:12;;;;;;;15.50;9.23;;;;;;;19.27;100.00;94763.50;5012370;28;20542;-59
2021/08/16 00:02:47;;;;;;;15.45;9.52;;;;;;;19.27;100.00;94746.41;5012387;28;20056;-57
2021/08/16 00:05:16;;;;;;;15.38;9.00;;;;;;;19.24;100.00;94747.84;5015203;28;20361;-57
2021/08/16 00:07:42;;;;;;;15.02;9.32;;;;;;;19.20;100.00;94743.41;5016259;28;20018;-53
2021/08/16 00:10:13;;;;;;;14.70;8.95;;;;;;;19.19;100.00;94736.38;5014916;28;20022;-55
2021/08/16 00:12:38;;;;;;;19.42;9.73;;;;;;;19.18;100.00;94741.00;5016075;28;20025;-57
2021/08/16 00:15:04;;;;;;;16.65;8.88;;;;;;;19.15;100.00;94735.44;5016038;28;20030;-55
2021/08/16 00:17:30;;;;;;;19.73;8.77;;;;;;;19.10;100.00;94730.97;5015832;28;20028;-57
2021/08/16 00:20:04;;;;;;;17.38;8.90;;;;;;;19.08;100.00;94735.94;5016200;28;20025;-58
2021/08/16 00:22:29;;;;;;;15.88;9.00;;;;;;;19.02;100.00;94735.34;5016055;28;20053;-57
2021/08/16 00:24:58;;;;;;;14.02;8.45;;;;;;;18.98;100.00;94730.88;5014739;28;20026;-55
2021/08/16 00:27:23;;;;;;;14.25;8.45;;;;;;;18.95;100.00;94735.06;5014510;28;20073;-55
2021/08/16 00:29:55;;;;;;;16.83;9.05;;;;;;;18.94;100.00;94710.97;5015744;28;20029;-57
2021/08/16 00:32:20;;;;;;;13.32;8.52;;;;;;;18.89;100.00;94703.81;5014465;28;20029;-57
2021/08/16 00:34:48;;;;;;;16.50;8.38;;;;;;;18.86;100.00;94701.72;5014317;28;20030;-56
2021/08/16 00:37:13;;;;;;;15.10;9.35;;;;;;;18.84;100.00;94693.13;5015694;28;20049;-57
2021/08/16 00:39:39;;;;;;;18.05;10.10;;;;;;;18.81;100.00;94691.06;5028546;28;20129;-55
2021/08/16 00:42:09;;;;;;;19.05;8.63;;;;;;;18.78;100.00;94681.66;5015611;28;20477;-53
2021/08/16 00:44:34;;;;;;;13.68;8.77;;;;;;;18.77;100.00;94665.69;5015412;28;20025;-57
2021/08/16 00:47:03;;;;;;;15.00;8.48;;;;;;;18.74;100.00;94686.13;5015379;28;20030;-56
2021/08/16 00:49:32;;;;;;;14.95;9.40;;;;;;;18.75;100.00;94676.06;5015299;28;20080;-53
2021/08/16 00:51:57;;;;;;;13.48;8.95;;;;;;;18.77;100.00;94662.97;5014146;28;20378;-56
2021/08/16 00:54:30;;;;;;;15.32;8.27;;;;;;;18.79;100.00;94668.91;5015346;28;20109;-54
2021/08/16 00:57:00;;;;;;;13.15;8.35;;;;;;;18.81;100.00;94653.88;5015239;28;20054;-57
2021/08/16 00:59:32;;;;;;;13.73;8.32;;;;;;;18.81;100.00;94667.44;5001423;28;20029;-56
2021/08/16 01:01:58;;;;;;;13.35;9.43;;;;;;;18.83;100.00;94664.41;5015530;28;20018;-59
2021/08/16 01:04:27;;;;;;;13.85;9.25;;;;;;;18.91;100.00;94662.78;5015290;28;20032;-56
2021/08/16 01:06:56;;;;;;;12.77;8.43;;;;;;;18.92;100.00;94654.28;5015047;28;20033;-50
2021/08/16 01:09:24;;;;;;;13.75;8.88;;;;;;;18.94;100.00;94653.97;5013861;28;20026;-55
2021/08/16 01:11:52;;;;;;;11.88;8.45;;;;;;;18.95;100.00;94650.13;5014837;28;20168;-50
2021/08/16 01:14:36;;;;;;;14.18;8.77;;;;;;;18.98;100.00;94646.75;5014401;28;20029;-52
2021/08/16 01:17:02;;;;;;;12.45;8.02;;;;;;;19.02;100.00;94620.56;5015040;28;20029;-55
2021/08/16 01:19:30;;;;;;;12.13;8.70;;;;;;;19.04;100.00;94616.38;5015322;28;20489;-53
2021/08/16 01:21:55;;;;;;;17.13;9.02;;;;;;;19.06;100.00;94616.06;5014748;28;20104;-54
2021/08/16 01:24:21;;;;;;;15.73;8.57;;;;;;;19.03;100.00;94633.78;5013479;28;20079;-54
2021/08/16 01:26:53;;;;;;;13.95;8.27;;;;;;;19.02;100.00;94634.94;5014798;28;20026;-54
2021/08/16 01:29:21;;;;;;;13.02;8.45;;;;;;;19.01;100.00;94627.91;5014807;28;20022;-56
2021/08/16 01:31:47;;;;;;;15.60;8.70;;;;;;;19.02;100.00;94634.94;5014672;28;20076;-55
2021/08/16 01:34:15;;;;;;;10.38;8.07;;;;;;;19.03;100.00;94638.44;5015003;28;20720;-56
2021/08/16 01:36:41;;;;;;;14.23;8.82;;;;;;;19.04;100.00;94634.59;5014541;28;20053;-57
2021/08/16 01:39:08;;;;;;;14.13;9.15;;;;;;;19.01;100.00;94627.13;5027458;28;20518;-57
2021/08/16 01:41:34;;;;;;;14.52;8.02;;;;;;;19.01;100.00;94630.63;5014688;28;20109;-59
2021/08/16 01:44:03;;;;;;;15.93;8.90;;;;;;;19.03;100.00;94643.84;5014484;28;20026;-54
2021/08/16 01:46:28;;;;;;;16.23;8.52;;;;;;;19.02;100.00;94639.56;5004105;28;20108;-56
2021/08/16 01:48:59;;;;;;;18.35;9.00;;;;;;;19.03;100.00;94638.44;5013423;28;20108;-54
2021/08/16 01:51:25;;;;;;;16.33;9.60;;;;;;;19.03;100.00;94644.66;5014140;28;20040;-56
2021/08/16 01:53:50;;;;;;;13.52;9.48;;;;;;;19.02;100.00;94637.63;5014287;28;20022;-57
2021/08/16 01:56:19;;;;;;;12.27;8.85;;;;;;;19.03;100.00;94639.22;5014327;28;20029;-58
2021/08/16 01:58:47;;;;;;;12.80;8.25;;;;;;;19.03;100.00;94636.50;5014075;28;20118;-54
2021/08/16 02:01:13;;;;;;;13.25;8.65;;;;;;;19.02;100.00;94634.94;5013129;28;20105;-58
2021/08/16 02:03:38;;;;;;;13.63;8.52;;;;;;;19.00;100.00;94642.59;5013996;28;20110;-57
2021/08/16 02:06:03;;;;;;;15.90;9.02;;;;;;;18.99;100.00;94649.13;5014062;28;20025;-55
2021/08/16 02:08:29;;;;;;;14.93;8.57;;;;;;;19.04;100.00;94653.59;5012472;28;20026;-56
2021/08/16 02:10:57;;;;;;;13.02;9.70;;;;;;;19.06;100.00;94657.56;5012693;28;20133;-55
2021/08/16 02:13:23;;;;;;;13.23;8.65;;;;;;;19.08;100.00;94649.88;5013717;28;20053;-57
2021/08/16 02:15:48;;;;;;;17.45;8.50;;;;;;;19.11;100.00;94651.16;5013946;28;20105;-56
2021/08/16 02:18:19;;;;;;;17.20;9.68;;;;;;;19.18;100.00;94642.47;5013643;28;20033;-55
2021/08/16 02:20:47;;;;;;;15.20;9.00;;;;;;;19.24;100.00;94650.13;5013935;28;20104;-57
2021/08/16 02:23:15;;;;;;;17.27;8.38;;;;;;;19.29;100.00;94646.41;5012348;28;20021;-55
2021/08/16 02:25:40;;;;;;;13.38;7.22;;;;;;;19.29;100.00;94647.19;5013085;28;20026;-55
2021/08/16 02:28:05;;;;;;;11.73;7.18;;;;;;;19.36;100.00;94658.34;5013406;28;20056;-56
2021/08/16 02:30:34;;;;;;;10.77;6.65;;;;;;;19.38;100.00;94666.13;5013686;28;20496;-57
2021/08/16 02:32:59;;;;;;;13.52;6.13;;;;;;;19.39;100.00;94665.00;5012097;28;20030;-56
2021/08/16 02:35:28;;;;;;;11.13;6.13;;;;;;;19.38;100.00;94664.22;5013562;28;20112;-59
2021/08/16 02:37:53;;;;;;;11.50;5.93;;;;;;;19.36;100.00;94674.63;5016422;28;20028;-57
2021/08/16 02:40:36;;;;;;;7.97;5.10;;;;;;;19.33;100.00;94679.94;5023185;28;20481;-57
2021/08/16 02:43:04;;;;;;;8.45;4.50;;;;;;;19.26;100.00;94674.22;5013429;28;20030;-57
2021/08/16 02:45:30;;;;;;;6.32;3.95;;;;;;;19.22;100.00;94668.66;5013042;28;20026;-56
2021/08/16 02:47:56;;;;;;;6.78;4.40;;;;;;;19.20;100.00;94665.44;5013189;28;20374;-56
2021/08/16 02:50:27;;;;;;;9.50;4.55;;;;;;;19.21;100.00;94661.63;5013299;28;20022;-55
2021/08/16 02:52:53;;;;;;;7.80;4.07;;;;;;;19.18;100.00;94656.84;5013046;28;20029;-56
2021/08/16 02:55:21;;;;;;;8.15;4.68;;;;;;;19.16;100.00;94650.16;5011971;28;20072;-51
2021/08/16 02:57:50;;;;;;;5.95;4.05;;;;;;;19.11;100.00;94651.97;5012973;28;20025;-54
2021/08/16 03:00:15;;;;;;;10.38;4.57;;;;;;;19.08;100.00;94647.16;5012757;28;20121;-54
2021/08/16 03:02:46;;;;;;;6.55;3.88;;;;;;;19.05;100.00;94644.31;5013212;28;20384;-54
2021/08/16 03:05:14;;;;;;;11.27;4.38;;;;;;;19.04;100.00;94645.44;5012995;28;20026;-55
2021/08/16 03:07:46;;;;;;;12.10;5.03;;;;;;;19.03;100.00;94646.56;5011489;28;20029;-54
2021/08/16 03:10:14;;;;;;;11.73;5.03;;;;;;;19.01;100.00;94648.81;5012960;28;20034;-55
2021/08/16 03:12:40;;;;;;;7.43;4.18;;;;;;;19.00;100.00;94656.19;5011546;28;20109;-56
2021/08/16 03:15:10;;;;;;;8.15;4.43;;;;;;;18.98;100.00;94655.69;5012722;28;20117;-57
2021/08/16 03:17:45;;;;;;;7.10;4.18;;;;;;;18.97;100.00;94661.44;5012784;28;20400;-56
2021/08/16 03:20:17;;;;;;;7.20;3.88;;;;;;;18.94;100.00;94660.19;5012713;28;20025;-57
2021/08/16 03:22:45;;;;;;;8.18;4.25;;;;;;;18.91;100.00;94663.56;5011833;28;20437;-55
2021/08/16 03:25:15;;;;;;;7.03;4.28;;;;;;;18.88;100.00;94668.84;5012514;28;20048;-57
2021/08/16 03:27:41;;;;;;;8.43;5.38;;;;;;;18.85;100.00;94667.56;5012663;28;20056;-57
2021/08/16 03:30:13;;;;;;;8.77;4.97;;;;;;;18.83;100.00;94675.25;5012599;28;20109;-56
2021/08/16 03:32:39;;;;;;;9.10;4.45;;;;;;;18.81;100.00;94672.88;5012569;28;20022;-56
2021/08/16 03:35:05;;;;;;;7.55;4.53;;;;;;;18.79;100.00;94685.19;5012585;28;20033;-56
2021/08/16 03:37:35;;;;;;;10.00;5.22;;;;;;;18.75;100.00;94685.00;5012413;28;20033;-58
2021/08/16 03:40:03;;;;;;;6.38;4.70;;;;;;;18.70;100.00;94689.84;5026642;28;20125;-55
2021/08/16 03:42:29;;;;;;;7.07;4.57;;;;;;;18.64;100.00;94694.63;5032129;28;20061;-55
2021/08/16 03:44:54;;;;;;;7.82;5.18;;;;;;;18.60;100.00;94693.66;5032277;28;20175;-51
2021/08/16 03:47:20;;;;;;;7.88;5.22;;;;;;;18.54;100.00;94703.09;5014203;28;20469;-59
2021/08/16 03:49:48;;;;;;;9.63;5.07;;;;;;;18.49;100.00;94714.91;5032428;28;20383;-57
2021/08/16 03:52:22;;;;;;;7.68;4.53;;;;;;;18.45;100.00;94719.41;5031915;28;20025;-58
2021/08/16 03:54:51;;;;;;;10.48;4.93;;;;;;;18.41;100.00;94714.94;5032156;28;20065;-55
2021/08/16 03:57:16;;;;;;;6.50;4.90;;;;;;;18.38;100.00;94721.81;5014683;28;20034;-57
2021/08/16 03:59:41;;;;;;;9.40;4.57;;;;;;;18.35;100.00;94730.59;5032049;28;20033;-56
2021/08/16 04:02:12;;;;;;;7.25;4.22;;;;;;;18.33;100.00;94745.56;5032153;28;20041;-51
2021/08/16 04:04:37;;;;;;;7.40;4.75;;;;;;;18.28;100.00;94737.63;5032010;28;20028;-55
2021/08/16 04:07:05;;;;;;;7.07;3.95;;;;;;;18.20;100.00;94748.16;5031890;28;20021;-51
2021/08/16 04:09:34;;;;;;;7.57;4.25;;;;;;;18.21;100.00;94741.59;5014233;28;20036;-51
2021/08/16 04:12:11;;;;;;;7.43;4.32;;;;;;;18.25;100.00;94739.88;5031783;28;20502;-54
2021/08/16 04:14:36;;;;;;;6.80;4.22;;;;;;;18.38;100.00;94737.28;5032006;28;20079;-50
2021/08/16 04:17:04;;;;;;;9.02;4.57;;;;;;;18.46;100.00;94739.19;5031703;28;20080;-51
2021/08/16 04:19:40;;;;;;;6.18;4.82;;;;;;;18.57;100.00;94734.22;5031927;28;20029;-51
2021/08/16 04:22:06;;;;;;;8.82;4.22;;;;;;;18.66;100.00;94726.84;5031932;28;20033;-56
2021/08/16 04:24:32;;;;;;;8.07;4.60;;;;;;;18.69;100.00;94720.81;5014716;28;20033;-54
2021/08/16 04:27:00;;;;;;;6.70;4.43;;;;;;;18.72;100.00;94709.28;5014044;28;20499;-55
2021/08/16 04:29:26;;;;;;;9.50;4.63;;;;;;;18.72;100.00;94709.28;5031725;28;20022;-52
2021/08/16 04:31:56;;;;;;;7.35;4.80;;;;;;;18.71;100.00;94705.78;5031638;28;20044;-57
2021/08/16 04:34:25;;;;;;;9.82;5.15;;;;;;;18.76;100.00;94692.03;5014028;28;20041;-57
2021/08/16 04:36:53;;;;;;;11.95;5.68;;;;;;;18.82;100.00;94687.22;5013725;28;20053;-58
2021/08/16 04:39:21;;;;;;;14.55;5.60;;;;;;;18.91;100.00;94658.13;5030010;28;20050;-56
2021/08/16 04:41:59;;;;;;;9.00;5.03;;;;;;;18.99;100.00;94642.91;5012023;28;20022;-58
2021/08/16 04:44:29;;;;;;;11.82;5.65;;;;;;;19.03;100.00;94625.66;5011936;28;20034;-56
2021/08/16 04:47:00;;;;;;;7.90;5.18;;;;;;;19.09;100.00;94620.81;5011755;28;20025;-53
2021/08/16 04:49:32;;;;;;;11.75;4.60;;;;;;;19.08;100.00;94617.31;5013083;28;20052;-57
2021/08/16 04:51:57;;;;;;;8.55;5.25;;;;;;;19.07;100.00;94623.88;5015374;28;20385;-54
2021/08/16 04:54:23;;;;;;;13.68;5.00;;;;;;;19.11;100.00;94596.88;5015279;28;20036;-57
2021/08/16 04:56:48;;;;;;;8.00;5.45;;;;;;;19.17;100.00;94590.09;5015362;28;20030;-55
2021/08/16 04:59:17;;;;;;;8.25;5.40;;;;;;;19.21;100.00;94579.38;5013889;28;20037;-55
2021/08/16 05:01:44;;;;;;;8.65;5.38;;;;;;;19.24;100.00;94570.56;5015027;28;20025;-52
2021/08/16 05:04:16;;;;;;;8.50;5.10;;;;;;;19.30;100.00;94558.38;5015133;28;20026;-54
2021/08/16 05:06:46;;;;;;;;;;;;;;;19.34;100.00;94543.03;5014336;28;20028;-56
2021/08/16 05:09:15;;;;;;;7.60;5.38;;;;;;;19.42;100.00;94528.56;5015323;28;19910;-53
2021/08/16 05:11:43;;;;;;;10.30;4.57;;;;;;;19.53;100.00;94505.28;5014937;28;20036;-54
2021/08/16 05:14:09;;;;;;;8.98;4.93;;;;;;;19.64;100.00;94500.25;5015057;28;20017;-55
2021/08/16 05:16:37;;;;;;;10.30;5.43;;;;;;;19.69;100.00;94495.41;5013843;28;20504;-49
2021/08/16 05:19:03;;;;;;;9.50;4.95;;;;;;;19.74;100.00;94496.31;5014773;28;20041;-54
2021/08/16 05:21:32;;;;;;;7.10;4.63;;;;;;;19.73;100.00;94490.06;5014789;28;20370;-53
2021/08/16 05:23:58;;;;;;;8.75;4.70;;;;;;;19.75;100.00;94498.69;5015266;28;20051;-54
2021/08/16 05:26:26;;;;;;;7.55;4.90;;;;;;;19.76;100.00;94507.66;5014867;28;20534;-53
2021/08/16 05:28:51;;;;;;;9.65;4.90;;;;;;;19.71;100.00;94513.28;5014927;28;20022;-56
2021/08/16 05:31:16;;;;;;;8.07;4.72;;;;;;;19.70;100.00;94523.38;5014613;28;20033;-52
2021/08/16 05:33:42;;;;;;;8.90;5.13;;;;;;;19.70;100.00;94520.66;5014829;28;20465;-57
2021/08/16 05:36:09;;;;;;;7.47;4.88;;;;;;;19.74;100.00;94523.47;5014503;28;20026;-55
2021/08/16 05:38:35;;;;;;;6.32;3.88;;;;;;;19.75;100.00;94525.84;5023325;28;20441;-57
2021/08/16 05:41:03;;;;;;;7.93;4.63;;;;;;;19.76;100.00;94527.47;5018911;28;20121;-54
2021/08/16 05:43:28;;;;;;;9.23;4.88;;;;;;;19.75;100.00;94538.66;5013357;28;20034;-55
2021/08/16 05:46:03;;;;;;;10.23;4.68;;;;;;;19.80;100.00;94539.25;5013077;28;20100;-56
2021/08/16 05:48:29;;;;;;;10.75;4.80;;;;;;;19.81;100.00;94543.53;5013111;28;20116;-58
2021/08/16 05:50:57;;;;;;;7.72;4.45;;;;;;;19.83;100.00;94548.63;5014114;28;20034;-54
2021/08/16 05:53:23;;;;;;;6.88;4.55;;;;;;;19.81;100.00;94561.78;5014302;28;20021;-57
2021/08/16 05:55:53;;;;;;;7.13;4.50;;;;;;;19.75;100.00;94569.31;5014214;28;20026;-52
2021/08/16 05:58:21;;;;;;;8.13;4.80;;;;;;;19.75;100.00;94569.31;5014070;28;20385;-57
2021/08/16 06:00:51;;;;;;;9.10;4.88;;;;;;;19.73;100.00;94566.16;5013099;28;20029;-53
2021/08/16 06:03:19;;;;;;;6.72;4.65;;;;;;;19.69;100.00;94567.97;5013952;28;20037;-57
2021/08/16 06:05:44;;;;;;;8.52;4.13;;;;;;;19.71;100.00;94576.56;5014044;28;20025;-55
2021/08/16 06:08:14;;;;;;;7.53;4.43;;;;;;;19.71;100.00;94578.50;5013960;28;20555;-49
2021/08/16 06:10:49;;;;;;;11.88;4.30;;;;;;;19.70;100.00;94577.69;5014024;28;20030;-54
2021/08/16 06:13:18;;;;;;;6.30;4.72;;;;;;;19.73;100.00;94581.66;5013969;28;20493;-54
2021/08/16 06:15:43;;;;;;;7.35;4.40;;;;;;;19.69;100.00;94587.78;4999744;28;20029;-56
2021/08/16 06:18:08;;;;;;;8.63;4.40;;;;;;;19.62;100.00;94592.94;5012517;28;20088;-56
2021/08/16 06:20:34;;;;;;;7.60;4.47;;;;;;;19.56;100.00;94588.88;5012438;28;20041;-55
2021/08/16 06:22:59;;;;;;;6.20;4.10;;;;;;;19.51;100.00;94591.75;5013708;28;20032;-56
2021/08/16 06:25:25;;;;;;;9.85;4.68;;;;;;;19.49;100.00;94585.06;5012698;28;20037;-57
2021/08/16 06:27:50;;;;;;;7.90;3.85;;;;;;;19.51;100.00;94586.31;5013652;28;20018;-55
2021/08/16 06:30:16;;;;;;;9.80;4.18;;;;;;;19.54;100.00;94590.31;5013464;28;20026;-55
2021/08/16 06:32:41;;;;;;;6.25;4.00;;;;;;;19.51;100.00;94594.47;5013355;28;20080;-56
2021/08/16 06:35:07;;;;;;;9.00;4.22;;;;;;;19.53;100.00;94602.28;5012206;28;20025;-55
2021/08/16 06:37:33;;;;;;;7.82;4.32;;;;;;;19.56;100.00;94604.38;5013762;28;20057;-56
2021/08/16 06:40:00;;;;;;;5.65;3.92;;;;;;;19.53;100.00;94604.97;5026347;28;20570;-59
2021/08/16 06:42:38;;;;;;;5.93;3.95;;;;;;;19.48;100.00;94608.72;5009174;28;20026;-56
2021/08/16 06:45:07;;;;;;;8.68;4.35;;;;;;;19.46;100.00;94605.53;5010712;28;20105;-55
2021/08/16 06:47:36;;;;;;;8.65;4.20;;;;;;;19.46;100.00;94599.31;5011525;28;20053;-54
2021/08/16 06:50:04;;;;;;;5.88;3.78;;;;;;;19.40;100.00;94604.13;5012746;28;20029;-55
2021/08/16 06:52:47;;;;;;;6.22;4.03;;;;;;;19.34;100.00;94613.63;5012119;28;20033;-57
2021/08/16 06:55:12;;;;;;;7.03;4.03;;;;;;;19.30;100.00;94604.53;5013066;28;20026;-55
2021/08/16 06:57:40;;;;;;;6.57;4.05;;;;;;;19.30;100.00;94609.97;5011821;28;20032;-55
2021/08/16 07:00:06;;;;;;;7.55;4.10;;;;;;;19.28;100.00;94612.22;4986087;28;20556;-49
2021/08/16 07:02:32;;;;;;;7.07;3.72;;;;;;;19.26;100.00;94614.47;5006776;28;20084;-49
2021/08/16 07:05:00;;;;;;;6.45;3.75;;;;;;;19.23;100.00;94615.16;5004112;28;20485;-54
2021/08/16 07:07:28;;;;;;;6.90;3.90;;;;;;;19.27;100.00;94616.06;5009491;28;20114;-53
2021/08/16 07:09:53;;;;;;;6.13;3.60;;;;;;;19.21;100.00;94612.78;5011940;28;20025;-53
2021/08/16 07:12:24;;;;;;;6.13;3.42;;;;;;;19.21;100.00;94617.38;4996564;28;20040;-54
2021/08/16 07:14:50;;;;;;;7.82;3.70;;;;;;;19.18;100.00;94628.91;5002339;28;20037;-54
2021/08/16 07:17:23;;;;;;;6.57;3.42;;;;;;;19.15;100.00;94629.56;5004002;28;20022;-50
2021/08/16 07:19:50;;;;;;;6.32;3.70;;;;;;;19.16;100.00;94623.81;5002924;28;20030;-52
2021/08/16 07:22:16;;;;;;;6.95;3.63;;;;;;;19.19;100.00;94625.84;5010195;28;20110;-55
2021/08/16 07:24:47;;;;;;;7.03;3.65;;;;;;;19.20;100.00;94632.88;5012016;28;20018;-54
2021/08/16 07:27:15;;;;;;;5.55;3.70;;;;;;;19.20;100.00;94630.16;5009468;28;20017;-51
2021/08/16 07:29:40;;;;;;;7.90;3.33;;;;;;;19.20;100.00;94638.31;5006734;28;20057;-54
2021/08/16 07:32:15;;;;;;;4.60;3.22;;;;;;;19.17;100.00;94638.19;5011332;28;20464;-51
2021/08/16 07:34:40;;;;;;;4.97;3.40;;;;;;;19.14;100.00;94634.22;5011985;28;20033;-55
2021/08/16 07:37:08;;;;;;;5.25;3.13;;;;;;;19.09;100.00;94637.88;5011673;28;20036;-55
2021/08/16 07:39:34;;;;;;;6.60;3.17;;;;;;;19.07;100.00;94636.63;5009442;28;20054;-56
2021/08/16 07:42:02;;;;;;;4.47;2.95;;;;;;;19.03;100.00;94639.22;5017516;28;20030;-55
2021/08/16 07:44:34;;;;;;;4.80;2.78;;;;;;;19.03;100.00;94644.66;5017025;28;20025;-54
2021/08/16 07:47:03;;;;;;;4.80;3.17;;;;;;;19.01;100.00;94657.75;5008884;28;20021;-57
2021/08/16 07:49:31;;;;;;;4.97;2.92;;;;;;;19.00;100.00;94648.03;5014912;28;20048;-55
2021/08/16 07:52:01;;;;;;;3.92;2.78;;;;;;;18.98;100.00;94658.41;5011136;28;20026;-56
2021/08/16 07:54:29;;;;;;;3.85;2.58;;;;;;;18.98;100.00;94647.53;5022651;28;20477;-54
2021/08/16 07:56:55;;;;;;;12.65;3.55;;;;;;;18.99;100.00;94651.84;5029999;28;20061;-53
2021/08/16 07:59:20;;;;;;;6.85;2.72;;;;;;;19.01;100.00;94654.25;5017283;28;20033;-56
2021/08/16 08:01:50;;;;;;;6.00;2.70;;;;;;;19.03;100.00;94655.50;5011257;28;20021;-59
2021/08/16 08:04:16;;;;;;;5.82;2.35;;;;;;;19.02;100.00;94648.50;5011491;28;20034;-56
2021/08/16 08:06:44;;;;;;;5.82;2.60;;;;;;;19.04;100.00;94657.09;5011685;28;20500;-52
2021/08/16 08:09:12;;;;;;;6.78;2.97;;;;;;;19.00;100.00;94656.19;5011372;28;20037;-51
2021/08/16 08:11:46;;;;;;;3.20;2.40;;;;;;;19.03;100.00;94655.50;5011001;28;20022;-54
2021/08/16 08:14:12;;;;;;;4.43;2.53;;;;;;;19.03;100.00;94655.50;5011566;28;20416;-55
2021/08/16 08:16:43;;;;;;;4.28;2.47;;;;;;;19.03;100.00;94658.22;5021481;28;20036;-52
2021/08/16 08:19:11;;;;;;;6.53;2.80;;;;;;;18.93;100.00;94664.03;5031058;28;20021;-54
2021/08/16 08:21:36;;;;;;;5.50;2.75;;;;;;;18.92;100.00;94673.28;5030683;28;20105;-56
2021/08/16 08:24:02;;;;;;;3.92;2.47;;;;;;;18.89;100.00;94681.31;5031773;28;20100;-55
2021/08/16 08:26:27;;;;;;;3.92;2.58;;;;;;;18.90;100.00;94661.19;5034987;28;20033;-56
2021/08/16 08:28:53;;;;;;;5.72;2.70;;;;;;;18.92;100.00;94659.72;5034643;28;20091;-55
2021/08/16 08:31:24;;;;;;;5.75;3.13;;;;;;;18.95;100.00;94650.91;5034262;28;20037;-56
2021/08/16 08:33:58;;;;;;;4.93;3.13;;;;;;;18.94;100.00;94653.97;5033453;28;20041;-54
2021/08/16 08:36:29;;;;;;;5.45;2.72;;;;;;;19.02;100.00;94672.91;5034753;28;20095;-51
2021/08/16 08:38:57;;;;;;;3.70;2.72;;;;;;;19.07;100.00;94690.94;5033109;28;20056;-57
2021/08/16 08:41:24;;;;;;;5.00;2.70;;;;;;;19.08;100.00;94684.38;5034270;28;20053;-53
2021/08/16 08:43:53;;;;;;;5.07;2.70;;;;;;;19.02;100.00;94691.13;5034409;28;20052;-55
2021/08/16 08:46:28;;;;;;;6.63;2.38;;;;;;;19.01;100.00;94698.47;5034407;28;20032;-56
2021/08/16 08:48:53;;;;;;;6.65;2.72;;;;;;;19.03;100.00;94692.72;5034449;28;20032;-56
2021/08/16 08:51:22;;;;;;;4.00;2.28;;;;;;;18.96;100.00;94695.13;5032772;28;20021;-55
2021/08/16 08:53:48;;;;;;;4.78;2.40;;;;;;;18.88;100.00;94701.41;5033484;28;20037;-51
2021/08/16 08:56:15;;;;;;;5.00;2.47;;;;;;;18.77;100.00;94728.09;5034533;28;20034;-57
2021/08/16 08:58:46;;;;;;;3.45;2.47;;;;;;;18.75;100.00;94727.63;5034169;28;20038;-56
2021/08/16 09:01:12;;;;;;;4.40;2.50;;;;;;;18.75;100.00;94722.19;5034186;28;20033;-55
2021/08/16 09:03:48;;;;;;;5.10;3.05;;;;;;;18.77;100.00;94709.09;5029565;28;20541;-61
2021/08/16 09:06:16;;;;;;;6.25;2.55;;;;;;;18.61;100.00;94716.16;5019099;28;20037;-53
2021/08/16 09:08:43;;;;;;;7.47;2.92;;;;;;;18.49;100.00;94733.13;5023708;28;20431;-52
2021/08/16 09:11:16;;;;;;;7.22;3.05;;;;;;;18.21;100.00;94776.06;5025362;28;20025;-49
2021/08/16 09:14:11;;;;;;;5.28;2.88;;;;;;;17.95;100.00;94795.84;5020874;28;20051;-48
2021/08/16 09:16:42;;;;;;;3.55;2.50;;;;;;;17.80;100.00;94828.00;5006268;28;20046;-48
2021/08/16 09:19:23;;;;;;;6.88;2.88;;;;;;;17.62;100.00;94857.75;5018148;28;20489;-50
2021/08/16 09:22:05;;;;;;;5.32;3.25;;;;;;;17.41;100.00;94875.66;5017860;28;20053;-49
2021/08/16 09:24:36;;;;;;;5.68;2.95;;;;;;;17.13;100.00;94901.31;5020020;28;20049;-53
2021/08/16 09:27:10;;;;;;;5.15;3.22;;;;;;;17.08;100.00;94915.78;5015824;28;20550;-54
2021/08/16 09:29:47;;;;;;;7.18;3.25;;;;;;;17.03;100.00;94916.69;5006920;28;20040;-52
2021/08/16 09:32:17;;;;;;;4.32;2.97;;;;;;;17.03;100.00;94930.22;5030225;28;20021;-54
2021/08/16 09:34:47;;;;;;;11.10;3.88;;;;;;;17.02;100.00;94938.66;5031596;28;20025;-50
2021/08/16 09:37:17;;;;;;;8.00;3.22;;;;;;;17.00;100.00;94959.81;5016736;28;20022;-55
2021/08/16 09:40:17;;;;;;;7.60;3.10;;;;;;;16.97;100.00;94973.97;5025304;28;20049;-55
2021/08/16 09:42:55;;;;;;;5.03;2.58;;;;;;;16.95;100.00;94987.00;5027642;28;20025;-59
2021/08/16 09:45:35;;;;;;;9.25;3.40;;;;;;;16.95;100.00;94995.94;5020674;28;20022;-56
2021/08/16 09:48:06;;;;;;;4.57;2.90;;;;;;;16.99;100.00;94987.97;5026924;28;20484;-56
2021/08/16 09:50:58;;;;;;;5.28;3.42;;;;;;;17.09;100.00;94987.75;5027647;28;20067;-59
2021/08/16 09:53:25;;;;;;;8.15;3.72;;;;;;;17.19;100.00;94997.53;5026883;28;20587;-51
2021/08/16 09:56:01;;;;;;;6.47;3.45;;;;;;;17.19;100.00;95009.16;5014362;28;20132;-51
2021/08/16 09:58:29;;;;;;;6.90;3.33;;;;;;;17.16;100.00;95004.34;5023492;28;20084;-60
2021/08/16 10:00:58;;;;;;;5.20;3.15;;;;;;;17.18;100.00;94996.72;5011145;28;20079;-52
2021/08/16 10:03:27;;;;;;;6.57;3.55;;;;;;;17.11;100.00;94990.94;5017021;28;20040;-52
2021/08/16 10:06:01;;;;;;;6.25;3.58;;;;;;;17.16;100.00;95000.84;5026170;28;20049;-52
2021/08/16 10:08:53;;;;;;;6.05;3.72;;;;;;;17.25;100.00;94990.84;5020634;28;20040;-54
2021/08/16 10:11:20;;;;;;;7.57;3.72;;;;;;;17.38;100.00;95000.84;5017198;28;20045;-53
2021/08/16 10:14:05;;;;;;;5.68;3.80;;;;;;;17.41;100.00;94994.00;5016703;28;20030;-56
2021/08/16 10:16:34;;;;;;;4.75;3.60;;;;;;;17.44;100.00;94988.75;5022372;28;20065;-51
2021/08/16 10:19:22;;;;;;;5.65;4.20;;;;;;;17.46;100.00;94980.31;5026473;28;20025;-52
2021/08/16 10:21:50;;;;;;;6.68;4.05;;;;;;;17.50;100.00;94989.44;5012220;28;20038;-54
2021/08/16 10:24:25;;;;;;;7.05;4.13;;;;;;;17.51;100.00;94970.16;5019989;28;20079;-56
2021/08/16 10:27:00;;;;;;;5.50;3.60;;;;;;;17.37;100.00;94959.44;5015748;28;20045;-52
2021/08/16 10:29:31;;;;;;;5.75;3.75;;;;;;;17.44;100.00;94958.16;5030749;28;20022;-56
2021/08/16 10:31:59;;;;;;;6.10;3.60;;;;;;;17.39;100.00;94954.50;5029640;28;20025;-56
2021/08/16 10:34:34;;;;;;;7.30;4.13;;;;;;;17.40;100.00;94947.16;5019146;28;20060;-54
2021/08/16 10:37:21;;;;;;;8.07;4.43;;;;;;;17.37;100.00;94947.81;5031277;28;20116;-57
2021/08/16 10:39:50;;;;;;;7.18;4.40;;;;;;;17.41;100.00;94937.94;5029599;28;20122;-61
2021/08/16 10:42:31;;;;;;;7.45;4.20;;;;;;;17.38;100.00;94938.56;5021003;28;20022;-60
2021/08/16 10:44:59;;;;;;;7.00;4.32;;;;;;;17.38;100.00;94943.97;5023475;28;20408;-61
2021/08/16 10:47:37;;;;;;;5.53;3.85;;;;;;;17.30;100.00;94933.91;5032195;28;20032;-61
2021/08/16 10:50:18;;;;;;;6.57;3.72;;;;;;;17.26;100.00;94952.69;5033048;28;20086;-61
2021/08/16 10:52:48;;;;;;;4.95;3.78;;;;;;;17.17;100.00;94943.72;5013304;28;20029;-61
2021/08/16 10:55:18;;;;;;;5.53;3.70;;;;;;;17.09;100.00;94941.75;5013228;28;20049;-61
2021/08/16 10:57:47;;;;;;;9.35;3.70;;;;;;;17.10;100.00;94936.00;5022767;28;20374;-61
2021/08/16 11:00:15;;;;;;;5.13;3.60;;;;;;;17.05;100.00;94948.88;5013175;28;20389;-61
2021/08/16 11:02:43;;;;;;;6.65;3.67;;;;;;;17.04;100.00;94964.31;5012987;28;20026;-61
2021/08/16 11:05:16;;;;;;;5.28;3.88;;;;;;;17.02;100.00;94968.44;5013023;28;20026;-60
2021/08/16 11:08:01;;;;;;;8.25;4.05;;;;;;;16.89;100.00;94964.69;5011649;28;20025;-61
2021/08/16 11:10:49;;;;;;;6.55;3.92;;;;;;;16.88;100.00;94965.00;5019798;28;20034;-61
2021/08/16 11:13:21;;;;;;;7.32;3.88;;;;;;;16.82;100.00;94953.47;5031101;28;20041;-61
2021/08/16 11:15:48;;;;;;;6.20;4.38;;;;;;;16.79;100.00;94952.19;5031411;28;20030;-61
2021/08/16 11:18:37;;;;;;;5.25;3.63;;;;;;;16.73;100.00;94945.31;5032554;28;20025;-60
2021/08/16 11:21:21;;;;;;;7.05;3.92;;;;;;;16.76;100.00;94927.66;5024541;28;20040;-61
2021/08/16 11:24:09;;;;;;;5.28;4.05;;;;;;;16.81;100.00;94930.25;5031311;28;20543;-59
2021/08/16 11:26:46;;;;;;;4.72;3.95;;;;;;;16.84;100.00;94943.16;5032557;28;20549;-61
2021/08/16 11:29:22;;;;;;;9.95;4.10;;;;;;;16.78;100.00;94949.78;5032438;28;20154;-61
2021/08/16 11:32:02;;;;;;;6.18;3.97;;;;;;;16.81;100.00;94941.84;5031163;28;20381;-61